Time;durP1;ratioP1;P1;durP2;ratioP2;P2;SDS_P1;SDS_P2;PMS_P1;PMS_P2;Temp;Humidity;BMP_temperature;BMP_pressure;BME280_temperature;BME280_humidity;BME280_pressure;Samples;Min_cycle;Max_cycle;Signal;HPM_P1;HPM_P2
2024/04/02 10:33:30;;;;;;;4.70;0.80;;;;;;;8.05;100.00;99134.56;1512891;85;28474;-84
2024/04/02 10:35:58;;;;;;;3.83;0.70;;;;;;;7.82;100.00;99167.29;1475665;88;21568;-85
2024/04/02 10:38:24;;;;;;;0.87;0.70;;;;;;;7.64;100.00;99166.91;1448261;88;21411;-84
2024/04/02 10:40:50;;;;;;;0.53;0.40;;;;;;;7.62;100.00;99200.50;1477939;87;21515;-86
2024/04/02 10:43:17;;;;;;;0.87;0.87;;;;;;;7.57;100.00;99197.51;1471855;87;22189;-86
2024/04/02 10:45:43;;;;;;;2.50;0.67;;;;;;;7.53;100.00;99230.38;1482751;87;21487;-85
2024/04/02 10:48:09;;;;;;;1.27;0.43;;;;;;;7.54;100.00;99237.32;1455427;88;21360;-82
2024/04/02 10:50:35;;;;;;;1.70;1.13;;;;;;;7.54;100.00;99243.91;1453829;88;21516;-86
2024/04/02 10:53:02;;;;;;;2.37;0.50;;;;;;;7.57;100.00;99254.61;1468756;88;21333;-81
2024/04/02 10:55:29;;;;;;;0.43;0.43;;;;;;;7.45;100.00;99282.52;1480275;88;21449;-84
2024/04/02 10:57:57;;;;;;;2.73;0.50;;;;;;;7.49;100.00;99279.08;1450001;89;21434;-83
2024/04/02 11:00:23;;;;;;;2.00;0.50;;;;;;;7.46;100.00;99290.75;1431560;89;21397;-88
2024/04/02 11:02:50;;;;;;;4.30;0.57;;;;;;;7.44;100.00;99299.28;1479007;87;21346;-84
2024/04/02 11:05:17;;;;;;;6.20;1.47;;;;;;;7.48;100.00;99312.98;1469699;87;22261;-84
2024/04/02 11:07:46;;;;;;;1.80;0.60;;;;;;;7.53;100.00;99326.48;1481829;87;21565;-85
2024/04/02 11:10:13;;;;;;;2.70;0.70;;;;;;;7.54;100.00;99329.47;1468557;88;21355;-85
2024/04/02 11:12:40;;;;;;;1.53;0.70;;;;;;;7.65;100.00;99342.38;1449776;89;21426;-85
2024/04/02 11:15:09;;;;;;;2.07;0.60;;;;;;;7.74;100.00;99343.72;1445223;89;22174;-82
2024/04/02 11:17:36;;;;;;;4.33;1.13;;;;;;;7.83;100.00;99342.81;1466180;87;22263;-85
2024/04/02 11:20:11;;;;;;;2.77;0.90;;;;;;;7.88;100.00;99341.36;1469874;87;21377;-84
2024/04/02 11:25:24;;;;;;;4.20;1.00;;;;;;;7.99;100.00;99352.09;1472508;87;21426;-87
2024/04/02 11:27:51;;;;;;;1.27;0.67;;;;;;;8.10;100.00;99365.00;1479878;87;21534;-87
2024/04/02 11:30:22;;;;;;;1.87;0.90;;;;;;;8.19;100.00;99370.31;1443619;89;21500;-86
2024/04/02 11:32:48;;;;;;;2.98;0.95;;;;;;;8.26;100.00;99366.08;1457738;88;22339;-87
2024/04/02 11:35:17;;;;;;;2.33;1.10;;;;;;;8.34;100.00;99375.31;1442839;89;22203;-87
2024/04/02 11:37:44;;;;;;;3.83;1.10;;;;;;;8.40;100.00;99386.60;1451689;89;21449;-85
2024/04/02 11:40:16;;;;;;;2.93;1.60;;;;;;;8.42;100.00;99381.97;1462213;89;21375;-87
2024/04/02 11:42:43;;;;;;;8.00;3.30;;;;;;;8.49;100.00;99392.23;1439046;89;21411;-88
2024/04/02 11:45:10;;;;;;;2.80;1.23;;;;;;;8.49;100.00;99388.28;1433970;90;21426;-88
2024/04/02 11:47:36;;;;;;;3.00;1.33;;;;;;;8.51;100.00;99399.47;1458608;89;22338;-90
2024/04/02 11:50:07;;;;;;;2.40;1.10;;;;;;;8.48;100.00;99406.87;1438330;90;21391;-85
2024/04/02 11:52:36;;;;;;;3.90;1.60;;;;;;;8.51;100.00;99409.20;1438486;90;21472;-87
2024/04/02 11:55:02;;;;;;;1.47;0.90;;;;;;;8.55;100.00;99410.55;1428303;90;21364;-86
2024/04/02 12:00:17;;;;;;;3.27;1.20;;;;;;;8.59;100.00;99421.92;1442349;89;21429;-86
2024/04/02 12:02:46;;;;;;;1.60;0.93;;;;;;;8.57;100.00;99429.19;1445819;89;21434;-87
2024/04/02 12:05:15;;;;;;;1.07;0.80;;;;;;;8.58;100.00;99424.23;1440659;89;21450;-86
2024/04/02 12:07:42;;;;;;;2.63;0.80;;;;;;;8.64;100.00;99431.19;1437761;89;21545;-87
2024/04/02 12:10:11;;;;;;;2.50;0.70;;;;;;;8.67;100.00;99430.86;1453656;89;22915;-86
2024/04/02 12:12:37;;;;;;;2.07;0.53;;;;;;;8.74;100.00;99443.23;1446230;90;21433;-86
2024/04/02 12:15:06;;;;;;;0.90;0.60;;;;;;;8.81;100.00;99448.22;1435567;89;21430;-86
2024/04/02 12:17:33;;;;;;;0.90;0.60;;;;;;;8.87;100.00;99444.13;1440139;90;21464;-86
2024/04/02 12:19:59;;;;;;;1.40;0.73;;;;;;;8.95;100.00;99453.38;1435585;90;21464;-85
2024/04/02 12:22:27;;;;;;;1.60;0.80;;;;;;;8.96;100.00;99456.34;1450196;89;21472;-83
2024/04/02 12:24:57;;;;;;;0.83;0.77;;;;;;;9.03;100.00;99454.73;1427576;90;21353;-83
2024/04/02 12:27:24;;;;;;;1.67;0.97;;;;;;;9.10;100.00;99459.36;1450579;89;22176;-83
2024/04/02 12:29:56;;;;;;;2.53;0.70;;;;;;;9.17;100.00;99458.53;1461926;89;21489;-83
2024/04/02 12:32:25;;;;;;;1.77;0.80;;;;;;;9.22;100.00;99451.45;1446320;87;21539;-83
